This is the latest recevied weather packets stored in our database for station/object NK7I. If no packets are shown the sender has not sent any weather packets the latest 1 day(s).
| Time | Temp. | Humidity | Pressure | Rain* | Wind** | Luminosity | Snow |
|---|---|---|---|---|---|---|---|
| 1777989683 | 7.78° C | 72% | 1014.4 hPa | 0 mm | 0.45 m/s, 322° | 42 W/m² | - |
| 1777989384 | 7.78° C | 71% | 1014.4 hPa | 0 mm | 0.45 m/s, 322° | 40 W/m² | - |
| 1777989083 | 7.22° C | 73% | 1014.4 hPa | 0 mm | 0.45 m/s, 322° | 39 W/m² | - |
| 1777988783 | 7.22° C | 74% | 1014.3 hPa | 0 mm | 0 m/s | 37 W/m² | - |
| 1777988484 | 7.22° C | 75% | 1014.3 hPa | 0 mm | 0.45 m/s, 314° | 35 W/m² | - |
| 1777988183 | 6.67° C | 74% | 1014.2 hPa | 0 mm | 0.45 m/s, 314° | 35 W/m² | - |
| 1777987883 | 6.67° C | 75% | 1014.2 hPa | 0 mm | 0.45 m/s, 314° | 33 W/m² | - |
| 1777987584 | 6.11° C | 75% | 1014 hPa | 0 mm | 0.45 m/s, 314° | 32 W/m² | - |
| 1777987283 | 5.56° C | 75% | 1013.9 hPa | 0 mm | 0 m/s | 30 W/m² | - |
| 1777986983 | 5.56° C | 77% | 1013.7 hPa | 0 mm | 0 m/s | 28 W/m² | - |
| 1777986683 | 5.56° C | 77% | 1013.7 hPa | 0 mm | 0 m/s | 26 W/m² | - |
| 1777986383 | 5.56° C | 78% | 1013.6 hPa | 0 mm | 0 m/s | 25 W/m² | - |
| 1777986083 | 5.56° C | 77% | 1013.6 hPa | 0 mm | 0 m/s | 23 W/m² | - |
| 1777985783 | 5.56° C | 76% | 1013.5 hPa | 0 mm | 0 m/s | 21 W/m² | - |
| 1777985483 | 5.56° C | 76% | 1013.5 hPa | 0 mm | 0 m/s | 19 W/m² | - |
| 1777985183 | 5.56° C | 76% | 1013.6 hPa | 0 mm | 0 m/s | 18 W/m² | - |
| 1777984883 | 5.56° C | 76% | 1013.5 hPa | 0 mm | 0 m/s | 16 W/m² | - |
| 1777984587 | 5.56° C | 74% | 1013.4 hPa | 0 mm | 0 m/s | 12 W/m² | - |
| 1777984283 | 5.56° C | 74% | 1013.3 hPa | 0 mm | 0 m/s | 11 W/m² | - |
| 1777983984 | 5.56° C | 75% | 1013.2 hPa | 0 mm | 0 m/s | 7 W/m² | - |
| 1777983683 | 5.56° C | 75% | 1013.2 hPa | 0 mm | 0 m/s | 5 W/m² | - |
| 1777983383 | 6.11° C | 75% | 1013.2 hPa | 0 mm | 0 m/s | 0 W/m² | - |
| 1777983083 | 6.11° C | 75% | 1013.1 hPa | 0 mm | 0 m/s | 0 W/m² | - |
| 1777982784 | 6.11° C | 73% | 1013.2 hPa | 0 mm | 0 m/s | 0 W/m² | - |
| 1777982483 | 6.11° C | 75% | 1013.1 hPa | 0 mm | 0 m/s | 0 W/m² | - |
* Rain latest hour (hover to see other rain measurements)
** Current wind speed in m/s (hover to see current wind gust speed)